createdAt,value
2018-09-19T00:01:31.383Z,6.83
2018-09-19T00:04:55.889Z,6.75
2018-09-19T00:08:20.302Z,6.72
2018-09-19T00:11:44.718Z,6.83
2018-09-19T00:15:09.175Z,6.55
2018-09-19T00:18:33.621Z,6.70
2018-09-19T00:21:58.044Z,7.65
2018-09-19T00:25:22.476Z,6.97
2018-09-19T00:28:46.897Z,6.12
2018-09-19T00:32:11.423Z,6.78
2018-09-19T00:35:35.952Z,8.90
2018-09-19T00:39:00.430Z,6.97
2018-09-19T00:42:24.889Z,6.50
2018-09-19T00:45:49.314Z,7.10
2018-09-19T00:49:13.721Z,6.55
2018-09-19T00:52:38.187Z,7.55
2018-09-19T00:56:02.657Z,8.03
2018-09-19T00:59:27.093Z,7.50
2018-09-19T01:02:51.543Z,7.00
2018-09-19T01:06:16.001Z,7.67
2018-09-19T01:09:40.417Z,7.70
2018-09-19T01:13:04.807Z,7.72
2018-09-19T01:16:29.204Z,7.62
2018-09-19T01:19:53.669Z,7.80
2018-09-19T01:23:18.120Z,7.60
2018-09-19T01:26:42.534Z,7.20
2018-09-19T01:30:07.561Z,7.35
2018-09-19T01:33:31.956Z,7.30
2018-09-19T01:36:56.406Z,7.87
2018-09-19T01:40:20.842Z,9.55
2018-09-19T01:43:45.286Z,7.75
2018-09-19T01:47:09.703Z,6.85
2018-09-19T01:50:34.124Z,7.97
2018-09-19T01:53:58.547Z,7.67
2018-09-19T01:57:23.035Z,8.08
2018-09-19T02:00:47.465Z,8.13
2018-09-19T02:04:11.910Z,7.28
2018-09-19T02:07:36.551Z,7.45
2018-09-19T02:11:00.949Z,9.13
2018-09-19T02:14:25.382Z,7.60
2018-09-19T02:17:49.833Z,8.60
2018-09-19T02:21:14.267Z,9.03
2018-09-19T02:24:38.735Z,7.28
2018-09-19T02:28:03.505Z,7.97
2018-09-19T02:31:28.211Z,10.13
2018-09-19T02:34:52.668Z,10.43
2018-09-19T02:38:17.107Z,8.88
2018-09-19T02:41:41.506Z,9.28
2018-09-19T02:45:06.023Z,9.43
2018-09-19T02:48:30.457Z,8.68
2018-09-19T02:51:57.947Z,10.03
2018-09-19T02:55:22.552Z,9.50
2018-09-19T02:58:47.062Z,9.38
2018-09-19T03:02:11.445Z,8.00
2018-09-19T03:05:35.846Z,10.28
2018-09-19T03:09:00.278Z,10.18
2018-09-19T03:12:24.764Z,10.28
2018-09-19T03:15:49.170Z,9.78
2018-09-19T03:19:13.611Z,10.30
2018-09-19T03:22:38.095Z,10.90
2018-09-19T03:26:02.515Z,11.38
2018-09-19T03:29:27.150Z,10.80
2018-09-19T03:32:51.606Z,11.25
2018-09-19T03:36:16.032Z,12.20
2018-09-19T03:39:40.452Z,11.50
2018-09-19T03:43:04.888Z,10.68
2018-09-19T03:46:29.313Z,11.22
2018-09-19T03:49:53.772Z,10.08
2018-09-19T03:53:18.192Z,10.18
2018-09-19T03:56:42.626Z,8.98
2018-09-19T04:00:07.156Z,9.35
2018-09-19T04:03:31.590Z,11.15
2018-09-19T04:06:56.005Z,10.70
2018-09-19T04:10:20.500Z,9.43
2018-09-19T04:13:44.906Z,9.28
2018-09-19T04:17:09.345Z,10.63
2018-09-19T04:20:33.768Z,9.55
2018-09-19T04:23:58.227Z,9.65
2018-09-19T04:27:22.641Z,10.03
2018-09-19T04:30:47.077Z,9.78
2018-09-19T04:34:11.469Z,9.78
2018-09-19T04:37:35.951Z,8.38
2018-09-19T04:41:00.386Z,10.63
2018-09-19T04:44:24.993Z,11.80
2018-09-19T04:47:49.581Z,11.85
2018-09-19T04:51:14.016Z,11.18
2018-09-19T04:54:38.437Z,10.53
2018-09-19T04:58:02.848Z,10.40
2018-09-19T05:01:27.301Z,11.93
2018-09-19T05:04:51.749Z,12.58
2018-09-19T05:08:16.276Z,12.75
2018-09-19T05:11:40.856Z,12.95
2018-09-19T05:15:05.310Z,12.88
2018-09-19T05:18:29.838Z,13.30
2018-09-19T05:21:54.307Z,12.63
2018-09-19T05:25:18.767Z,13.55
2018-09-19T05:28:43.192Z,13.98
2018-09-19T05:32:07.661Z,14.10
2018-09-19T05:35:32.095Z,15.63
2018-09-19T05:38:56.562Z,18.25
2018-09-19T05:42:21.006Z,19.65
2018-09-19T05:45:45.458Z,18.55
2018-09-19T05:49:09.889Z,16.00
2018-09-19T05:52:34.316Z,17.42
2018-09-19T05:55:58.831Z,15.85
2018-09-19T05:59:23.252Z,17.35
2018-09-19T06:02:47.669Z,18.90
2018-09-19T06:06:12.116Z,18.27
2018-09-19T06:09:36.531Z,17.27
2018-09-19T06:13:01.003Z,17.50
2018-09-19T06:16:25.384Z,18.82
2018-09-19T06:19:50.268Z,17.25
2018-09-19T06:23:14.686Z,16.82
2018-09-19T06:26:39.123Z,18.77
2018-09-19T06:30:03.595Z,17.35
2018-09-19T06:33:28.043Z,18.07
2018-09-19T06:36:52.504Z,19.07
2018-09-19T06:40:16.945Z,17.92
2018-09-19T06:43:41.358Z,17.73
2018-09-19T06:47:05.916Z,17.30
2018-09-19T06:50:30.327Z,19.12
2018-09-19T06:53:54.792Z,17.32
2018-09-19T06:57:19.257Z,15.40
2018-09-19T07:00:43.691Z,15.90
2018-09-19T07:04:08.196Z,17.05
2018-09-19T07:07:32.660Z,19.65
2018-09-19T07:10:57.111Z,14.98
2018-09-19T07:14:21.592Z,15.32
2018-09-19T07:17:46.023Z,13.55
2018-09-19T07:21:10.554Z,12.47
2018-09-19T07:24:34.958Z,13.05
2018-09-19T07:27:59.482Z,13.22
2018-09-19T07:31:23.909Z,11.75
2018-09-19T07:34:48.401Z,12.78
2018-09-19T07:38:12.796Z,13.60
2018-09-19T07:41:37.194Z,12.75
2018-09-19T07:45:01.651Z,14.83
2018-09-19T07:48:26.079Z,15.95
2018-09-19T07:51:50.555Z,13.10
2018-09-19T07:55:15.082Z,15.20
2018-09-19T07:58:39.529Z,13.72
2018-09-19T08:02:03.954Z,13.60
2018-09-19T08:05:28.394Z,13.83
2018-09-19T08:08:52.834Z,13.10
2018-09-19T08:12:17.201Z,12.70
2018-09-19T08:15:41.625Z,13.35
2018-09-19T08:19:06.028Z,12.65
2018-09-19T08:22:30.550Z,9.50
2018-09-19T08:25:54.886Z,12.10
2018-09-19T08:29:19.317Z,11.68
2018-09-19T08:32:43.778Z,12.23
2018-09-19T08:36:08.306Z,12.78
2018-09-19T08:39:32.778Z,12.20
2018-09-19T08:42:57.242Z,10.63
2018-09-19T08:46:21.712Z,11.50
2018-09-19T08:49:46.185Z,11.88
2018-09-19T08:53:13.232Z,12.30
2018-09-19T08:56:37.635Z,10.43
2018-09-19T09:00:02.133Z,11.40
2018-09-19T09:03:26.599Z,9.43
2018-09-19T09:06:51.059Z,9.33
2018-09-19T09:10:18.466Z,7.97
2018-09-19T09:13:42.944Z,8.88
2018-09-19T09:17:07.322Z,7.87
2018-09-19T09:20:31.789Z,9.28
2018-09-19T09:23:56.224Z,7.95
2018-09-19T09:27:20.764Z,8.60
2018-09-19T09:30:45.138Z,8.58
2018-09-19T09:34:09.675Z,8.00
2018-09-19T09:37:34.326Z,7.17
2018-09-19T09:40:58.769Z,7.37
2018-09-19T09:44:23.294Z,7.03
2018-09-19T09:47:47.723Z,6.70
2018-09-19T09:51:12.140Z,6.65
2018-09-19T09:54:36.766Z,5.87
2018-09-19T09:58:01.322Z,5.92
2018-09-19T10:01:25.791Z,6.97
2018-09-19T10:04:50.240Z,6.60
2018-09-19T10:08:14.693Z,7.65
2018-09-19T10:11:39.126Z,6.40
2018-09-19T10:15:03.527Z,7.17
2018-09-19T10:18:28.012Z,6.17
2018-09-19T10:21:52.428Z,6.00
2018-09-19T10:25:16.919Z,5.75
2018-09-19T10:28:41.367Z,6.37
2018-09-19T10:32:05.893Z,5.75
2018-09-19T10:35:30.325Z,5.03
2018-09-19T10:38:54.798Z,4.83
2018-09-19T10:42:19.227Z,5.75
2018-09-19T10:45:43.683Z,5.17
2018-09-19T10:49:08.184Z,4.85
2018-09-19T10:52:32.594Z,5.17
2018-09-19T10:55:57.106Z,5.17
2018-09-19T10:59:21.565Z,6.40
2018-09-19T11:02:46.040Z,5.37
2018-09-19T11:06:10.497Z,5.50
2018-09-19T11:09:34.925Z,5.03
2018-09-19T11:12:59.344Z,4.40
2018-09-19T11:16:23.755Z,6.17
2018-09-19T11:19:48.331Z,5.60
2018-09-19T11:23:12.785Z,6.08
2018-09-19T11:26:37.207Z,5.45
2018-09-19T11:30:01.666Z,5.78
2018-09-19T11:33:26.106Z,6.17
2018-09-19T11:36:50.528Z,5.75
2018-09-19T11:40:14.967Z,5.53
2018-09-19T11:43:39.483Z,5.90
2018-09-19T11:47:03.959Z,5.62
2018-09-19T11:50:28.446Z,5.33
2018-09-19T11:53:52.889Z,5.42
2018-09-19T11:57:17.566Z,4.47
2018-09-19T12:00:41.980Z,5.17
2018-09-19T12:04:06.482Z,4.95
2018-09-19T12:07:31.318Z,4.83
2018-09-19T12:10:55.751Z,5.70
2018-09-19T12:14:20.207Z,5.08
2018-09-19T12:17:44.680Z,6.53
2018-09-19T12:21:09.120Z,5.17
2018-09-19T12:24:33.528Z,4.78
2018-09-19T12:27:58.179Z,5.20
2018-09-19T12:31:22.621Z,4.92
2018-09-19T12:34:47.075Z,4.35
2018-09-19T12:38:11.923Z,4.53
2018-09-19T12:41:36.398Z,4.80
2018-09-19T12:45:00.800Z,3.90
2018-09-19T12:48:25.199Z,4.55
2018-09-19T12:51:49.630Z,4.40
2018-09-19T12:55:14.110Z,4.85
2018-09-19T12:58:38.973Z,4.15
2018-09-19T13:02:03.386Z,5.10
2018-09-19T13:05:27.829Z,4.37
2018-09-19T13:08:52.282Z,4.58
2018-09-19T13:12:16.940Z,4.70
2018-09-19T13:15:41.343Z,5.17
2018-09-19T13:19:05.777Z,4.53
2018-09-19T13:22:30.224Z,4.55
2018-09-19T13:25:54.633Z,4.15
2018-09-19T13:29:19.073Z,4.15
2018-09-19T13:32:43.496Z,5.37
2018-09-19T13:36:07.903Z,5.40
2018-09-19T13:39:32.337Z,4.67
2018-09-19T13:42:56.802Z,4.40
2018-09-19T13:46:21.308Z,4.65
2018-09-19T13:49:52.767Z,4.33
2018-09-19T13:53:21.438Z,4.35
2018-09-19T13:56:45.853Z,5.05
2018-09-19T14:00:10.299Z,4.30
2018-09-19T14:03:34.729Z,5.20
2018-09-19T14:06:59.115Z,4.83
2018-09-19T14:10:23.592Z,4.72
2018-09-19T14:13:48.008Z,4.15
2018-09-19T14:17:12.399Z,5.37
2018-09-19T14:20:37.125Z,4.78
2018-09-19T14:24:01.600Z,6.00
2018-09-19T14:27:26.013Z,5.58
2018-09-19T14:30:50.422Z,5.58
2018-09-19T14:34:14.850Z,4.90
2018-09-19T14:37:39.287Z,5.05
2018-09-19T14:41:03.759Z,5.37
2018-09-19T14:44:28.188Z,4.85
2018-09-19T14:47:52.708Z,4.20
2018-09-19T14:51:17.123Z,5.95
2018-09-19T14:54:41.572Z,4.70
2018-09-19T14:58:06.025Z,4.28
2018-09-19T15:01:30.417Z,4.83
2018-09-19T15:04:55.020Z,4.83
2018-09-19T15:08:19.465Z,4.67
2018-09-19T15:11:43.901Z,4.60
2018-09-19T15:15:08.318Z,5.10
2018-09-19T15:18:32.752Z,4.87
2018-09-19T15:21:57.317Z,4.40
2018-09-19T15:25:21.748Z,6.10
2018-09-19T15:28:46.230Z,4.15
2018-09-19T15:32:10.737Z,4.85
2018-09-19T15:35:35.232Z,4.58
2018-09-19T15:38:59.679Z,5.47
2018-09-19T15:42:24.165Z,4.92
2018-09-19T15:45:48.676Z,4.75
2018-09-19T15:49:13.115Z,4.50
2018-09-19T15:52:37.525Z,4.08
2018-09-19T15:56:03.393Z,4.78
2018-09-19T15:59:27.844Z,5.03
2018-09-19T16:02:52.285Z,4.20
2018-09-19T16:06:16.731Z,4.58
2018-09-19T16:09:41.192Z,4.80
2018-09-19T16:13:27.190Z,4.30
2018-09-19T16:16:51.652Z,4.33
2018-09-19T16:20:16.175Z,4.87
2018-09-19T16:23:40.598Z,5.03
2018-09-19T16:27:05.053Z,4.20
2018-09-19T16:30:29.514Z,4.10
2018-09-19T16:33:54.040Z,4.78
2018-09-19T16:37:18.461Z,4.67
2018-09-19T16:40:42.902Z,4.03
2018-09-19T16:44:07.582Z,4.62
2018-09-19T16:47:32.079Z,5.25
2018-09-19T16:50:56.497Z,4.22
2018-09-19T16:54:20.940Z,4.95
2018-09-19T16:57:45.373Z,4.45
2018-09-19T17:01:09.864Z,4.83
2018-09-19T17:04:34.357Z,4.40
2018-09-19T17:07:58.922Z,3.72
2018-09-19T17:11:23.401Z,3.87
2018-09-19T17:14:47.803Z,4.42
2018-09-19T17:18:12.233Z,4.50
2018-09-19T17:23:12.525Z,5.28
2018-09-19T17:26:36.985Z,5.05
2018-09-19T17:30:01.427Z,4.37
2018-09-19T17:33:26.104Z,4.58
2018-09-19T17:36:50.637Z,4.75
2018-09-19T17:40:15.082Z,5.17
2018-09-19T17:43:39.472Z,4.75
2018-09-19T17:47:03.978Z,4.72
2018-09-19T17:50:28.501Z,4.83
2018-09-19T17:53:52.955Z,4.58
2018-09-19T17:57:17.422Z,4.65
2018-09-19T18:00:41.857Z,5.17
2018-09-19T18:04:06.390Z,4.83
2018-09-19T18:07:30.797Z,4.78
2018-09-19T18:10:55.261Z,5.40
2018-09-19T18:14:19.762Z,5.03
2018-09-19T18:17:44.265Z,4.60
2018-09-19T18:21:08.798Z,4.72
2018-09-19T18:24:33.256Z,4.35
2018-09-19T18:27:57.675Z,5.17
2018-09-19T18:31:22.119Z,5.58
2018-09-19T18:34:46.593Z,5.80
2018-09-19T18:38:11.147Z,5.92
2018-09-19T18:41:36.078Z,5.37
2018-09-19T18:45:00.521Z,4.90
2018-09-19T18:48:25.243Z,4.97
2018-09-19T18:51:49.732Z,5.15
2018-09-19T18:55:14.225Z,5.42
2018-09-19T18:58:38.816Z,5.03
2018-09-19T19:02:03.290Z,4.80
2018-09-19T19:05:27.745Z,5.10
2018-09-19T19:08:52.205Z,5.00
2018-09-19T19:12:17.966Z,5.33
2018-09-19T19:15:42.366Z,5.55
2018-09-19T19:19:07.820Z,4.90
2018-09-19T19:22:32.348Z,5.90
2018-09-19T19:25:58.227Z,5.58
2018-09-19T19:29:23.301Z,5.28
2018-09-19T19:32:48.862Z,4.78
2018-09-19T19:36:13.709Z,6.00
2018-09-19T19:39:38.381Z,5.08
2018-09-19T19:43:03.975Z,5.83
2018-09-19T19:46:29.767Z,5.53
2018-09-19T19:49:55.042Z,5.28
2018-09-19T19:53:19.496Z,5.50
2018-09-19T19:56:51.128Z,4.12
2018-09-19T20:00:15.587Z,5.83
2018-09-19T20:03:40.207Z,5.10
2018-09-19T20:07:05.337Z,6.47
2018-09-19T20:10:34.283Z,5.25
2018-09-19T20:14:01.450Z,5.50
2018-09-19T20:17:25.991Z,6.37
2018-09-19T20:20:50.454Z,5.12
2018-09-19T20:24:14.932Z,5.67
2018-09-19T20:27:39.539Z,5.40
2018-09-19T20:31:04.142Z,7.10
2018-09-19T20:34:28.691Z,4.83
2018-09-19T20:37:53.203Z,6.22
2018-09-19T20:41:17.688Z,5.90
2018-09-19T20:44:42.187Z,5.75
2018-09-19T20:48:06.862Z,5.92
2018-09-19T20:51:31.346Z,6.00
2018-09-19T20:54:55.836Z,6.65
2018-09-19T20:58:20.415Z,6.05
2018-09-19T21:01:44.873Z,6.53
2018-09-19T21:05:09.419Z,5.83
2018-09-19T21:08:33.845Z,7.17
2018-09-19T21:11:58.328Z,7.30
2018-09-19T21:15:23.453Z,7.00
2018-09-19T21:18:47.954Z,7.47
2018-09-19T21:22:12.637Z,6.72
2018-09-19T21:25:36.943Z,7.12
2018-09-19T21:29:01.419Z,7.60
2018-09-19T21:32:26.019Z,7.42
2018-09-19T21:35:50.449Z,7.67
2018-09-19T21:39:14.864Z,8.35
2018-09-19T21:42:39.291Z,7.15
2018-09-19T21:46:03.713Z,7.03
2018-09-19T21:49:28.147Z,7.25
2018-09-19T21:52:52.575Z,7.10
2018-09-19T21:56:16.995Z,7.87
2018-09-19T21:59:41.444Z,8.15
2018-09-19T22:03:06.078Z,6.87
2018-09-19T22:06:30.488Z,6.12
2018-09-19T22:10:01.676Z,7.17
2018-09-19T22:13:26.113Z,6.25
2018-09-19T22:16:50.519Z,8.55
2018-09-19T22:20:14.973Z,6.20
2018-09-19T22:23:39.386Z,7.00
2018-09-19T22:27:03.827Z,6.60
2018-09-19T22:30:28.277Z,7.15
2018-09-19T22:33:52.702Z,7.35
2018-09-19T22:37:17.118Z,5.95
2018-09-19T22:40:41.539Z,6.85
2018-09-19T22:44:06.049Z,6.85
2018-09-19T22:47:30.489Z,5.60
2018-09-19T22:50:54.915Z,5.70
2018-09-19T22:54:19.339Z,5.80
2018-09-19T22:57:43.741Z,6.80
2018-09-19T23:01:08.161Z,6.15
2018-09-19T23:04:32.609Z,6.45
2018-09-19T23:07:57.035Z,7.65
2018-09-19T23:11:21.449Z,7.30
2018-09-19T23:14:45.918Z,6.33
2018-09-19T23:18:10.357Z,7.20
2018-09-19T23:21:34.800Z,6.33
2018-09-19T23:24:59.180Z,6.97
2018-09-19T23:28:23.616Z,6.12
2018-09-19T23:31:48.095Z,7.28
2018-09-19T23:35:12.526Z,6.28
2018-09-19T23:38:36.983Z,6.22
2018-09-19T23:42:02.351Z,7.17
2018-09-19T23:45:26.772Z,6.55
2018-09-19T23:48:51.177Z,7.15
2018-09-19T23:52:15.626Z,7.40
2018-09-19T23:55:40.065Z,6.15
2018-09-19T23:59:04.523Z,6.70
